Terminal Aerodrome Forecast
Issued by NWS Albany, NY

Home | Current Version | Previous Version | Text Only | Print | Product List | Glossary On
Versions: 1 2 3 4 5 6 7 8 9 10 11 12 13 14 15 16 17 18
017
FTUS41 KALY 231130
TAFALB
TAF
KALB 231130Z 2312/2412 30007KT P6SM SKC
     FM231500 32009KT P6SM SKC
     FM240000 VRB03KT P6SM FEW250
     FM240400 00000KT P6SM BKN120
     FM241000 17006KT P6SM OVC090=

USA.gov is the U.S. government's official web portal to all federal, state and local government web resources and services.